Centennial Airport
KAPA : now visible

Airfield :











YOU CAN JOIN US ON...

 
LOGIN :

Register | Disclaimer

   EN    FR    IT 

 









Legend :    VFR   Marginal VFR   IFR   Intensive IFR   Very Intensive IFR
Visi :
Ceiling :
>= 8 km
>= 3000ft
5 to 8 km
1000 to 3000 ft
1500m to 5 km
500 to 1000 ft
800 to 1500m
200 to 500 ft
< 800m
< 200 ft
Symbols :   Thunderstorms  Fog  Heavy snow  Heavy precipitations  Wind > 20 kt






- Airport Elevation : 5885 ft


KAPA - Centennial

CURRENT METAR :
  • 212053Z 33004KT 10SM BKN022 OVC029 02/M04 A3006 RMK AO2 SLP206 60000 T00171039 58014

EXPIRED METARs :
  • 212014Z 32006KT 10SM SCT023 BKN028 OVC039 02/M04 A3006 RMK AO2 T00171044
  • 211953Z 31007KT 10SM OVC037 01/M04 A3007 RMK AO2 SNE09 SLP211 P0000 T00111044
  • 211904Z 35007KT 5SM -SN SCT022 OVC035 01/M03 A3009 RMK AO2 P0000 T00061033
  • 211853Z 34006KT 2SM -SN SCT022 OVC035 00/M04 A3010 RMK AO2 SNB33 SLP224 P0000 T00001039
  • 211820Z VRB03KT 10SM OVC030 01/M06 A3011 RMK AO2 T00061061

TAF KAPA
Valid from the 21 at 20:00 until the 22 at 18:00 UTC


212023Z 2120/2218 34007KT P6SM SCT020 BKN028 OVC040
TEMPO 2122/2202 2SM -SHSN OVC010
FM220200 34005KT P6SM SCT010 BKN018 OVC028
TEMPO 2202/2206 2SM -SHSN OVC008
FM220600 23005KT P6SM VCSH BKN040 OVC070
FM220900 15011KT P6SM SCT040 OVC120
FM221300 28008KT P6SM SCT010 OVC120
KZDV FIR / North America



MET'MAP, your aeronautical weather chart ! - Copyright ORBIFLY December 2007 - Disclaimer

ORBIFLY MET'MAP TEAM :

Programming & Development : Alexandra Zaïnal
Concept & original design : Baudouin d'Aumeries
Assistance for programming : Marc-Olivier Méhu
Technical & hardware support : Manuel Goepfert

Contact : metmap@orbifly.com




SOURCES & CREDITS :

   NOAA       Earth
Advisory